createdAt,value
2018-05-29T00:02:26.419Z,10.65
2018-05-29T00:04:54.691Z,10.82
2018-05-29T00:07:22.971Z,10.00
2018-05-29T00:09:51.273Z,10.60
2018-05-29T00:12:18.807Z,10.45
2018-05-29T00:14:46.318Z,10.55
2018-05-29T00:17:13.854Z,10.75
2018-05-29T00:19:42.125Z,10.07
2018-05-29T00:22:10.409Z,10.57
2018-05-29T00:24:38.726Z,10.70
2018-05-29T00:27:06.259Z,11.00
2018-05-29T00:29:34.553Z,10.75
2018-05-29T00:32:02.105Z,10.30
2018-05-29T00:34:30.409Z,11.43
2018-05-29T00:36:58.085Z,12.82
2018-05-29T00:39:25.640Z,11.32
2018-05-29T00:41:53.170Z,12.00
2018-05-29T00:44:21.462Z,11.65
2018-05-29T00:46:49.773Z,11.00
2018-05-29T00:49:17.333Z,10.70
2018-05-29T00:51:44.868Z,11.02
2018-05-29T00:54:13.187Z,11.60
2018-05-29T00:56:40.706Z,11.20
2018-05-29T00:59:08.387Z,12.37
2018-05-29T01:01:36.694Z,12.35
2018-05-29T01:04:04.214Z,11.30
2018-05-29T01:06:31.757Z,11.65
2018-05-29T01:08:59.305Z,12.77
2018-05-29T01:11:26.826Z,13.27
2018-05-29T01:13:55.105Z,13.30
2018-05-29T01:16:23.430Z,12.88
2018-05-29T01:18:50.949Z,13.65
2018-05-29T01:21:19.234Z,14.48
2018-05-29T01:23:47.541Z,14.18
2018-05-29T01:26:15.063Z,14.95
2018-05-29T01:28:43.449Z,15.32
2018-05-29T01:31:11.821Z,14.73
2018-05-29T01:33:39.460Z,15.18
2018-05-29T01:36:06.984Z,13.98
2018-05-29T01:38:35.299Z,14.98
2018-05-29T01:41:02.854Z,13.98
2018-05-29T01:43:30.393Z,15.38
2018-05-29T01:45:58.711Z,16.20
2018-05-29T01:48:26.230Z,15.77
2018-05-29T01:50:54.599Z,15.40
2018-05-29T01:53:22.105Z,16.80
2018-05-29T01:55:49.623Z,16.67
2018-05-29T01:58:17.160Z,15.35
2018-05-29T02:00:44.782Z,15.65
2018-05-29T02:03:13.084Z,14.95
2018-05-29T02:05:40.609Z,15.23
2018-05-29T02:08:09.030Z,14.40
2018-05-29T02:10:36.625Z,14.63
2018-05-29T02:13:04.152Z,14.07
2018-05-29T02:15:31.702Z,15.75
2018-05-29T02:17:59.993Z,15.35
2018-05-29T02:20:27.512Z,15.55
2018-05-29T02:22:55.062Z,15.30
2018-05-29T02:25:22.578Z,14.93
2018-05-29T02:27:50.902Z,15.45
2018-05-29T02:30:19.206Z,15.38
2018-05-29T02:32:46.719Z,15.90
2018-05-29T02:35:14.248Z,16.12
2018-05-29T02:37:42.571Z,15.35
2018-05-29T02:40:10.115Z,17.05
2018-05-29T02:42:37.669Z,17.75
2018-05-29T02:45:05.992Z,17.42
2018-05-29T02:47:34.281Z,17.08
2018-05-29T02:50:01.802Z,17.92
2018-05-29T02:52:30.118Z,17.83
2018-05-29T02:54:57.656Z,18.87
2018-05-29T02:57:25.182Z,18.83
2018-05-29T02:59:52.800Z,18.95
2018-05-29T03:02:20.466Z,20.98
2018-05-29T03:04:48.001Z,19.95
2018-05-29T03:07:15.558Z,19.20
2018-05-29T03:09:43.086Z,18.30
2018-05-29T03:12:10.602Z,19.20
2018-05-29T03:14:38.910Z,19.67
2018-05-29T03:17:06.445Z,19.45
2018-05-29T03:19:34.736Z,19.80
2018-05-29T03:22:02.298Z,19.17
2018-05-29T03:24:30.590Z,19.62
2018-05-29T03:26:58.109Z,21.27
2018-05-29T03:29:25.654Z,19.87
2018-05-29T03:31:53.169Z,20.95
2018-05-29T03:34:21.447Z,19.73
2018-05-29T03:36:49.025Z,20.48
2018-05-29T03:39:16.549Z,19.77
2018-05-29T03:41:44.069Z,19.60
2018-05-29T03:44:11.606Z,19.65
2018-05-29T03:46:39.898Z,20.55
2018-05-29T03:49:07.413Z,19.75
2018-05-29T03:51:34.954Z,19.35
2018-05-29T03:54:02.514Z,19.65
2018-05-29T03:56:30.060Z,20.17
2018-05-29T03:58:57.602Z,19.92
2018-05-29T04:01:25.137Z,20.48
2018-05-29T04:03:53.589Z,20.02
2018-05-29T04:06:21.149Z,20.48
2018-05-29T04:08:48.684Z,19.80
2018-05-29T04:11:16.990Z,22.42
2018-05-29T04:13:44.533Z,21.02
2018-05-29T04:16:12.048Z,20.58
2018-05-29T04:18:39.574Z,21.60
2018-05-29T04:21:07.115Z,20.50
2018-05-29T04:23:35.433Z,19.87
2018-05-29T04:26:02.951Z,20.00
2018-05-29T04:28:31.278Z,18.92
2018-05-29T04:30:58.801Z,18.73
2018-05-29T04:33:26.323Z,20.05
2018-05-29T04:35:53.860Z,21.75
2018-05-29T04:38:21.385Z,21.42
2018-05-29T04:40:48.910Z,20.92
2018-05-29T04:43:17.233Z,21.23
2018-05-29T04:45:44.749Z,21.35
2018-05-29T04:48:12.322Z,21.02
2018-05-29T04:50:39.889Z,20.92
2018-05-29T04:53:07.408Z,20.67
2018-05-29T04:55:35.700Z,20.17
2018-05-29T04:58:04.112Z,20.98
2018-05-29T05:00:31.633Z,22.35
2018-05-29T05:02:59.920Z,20.95
2018-05-29T05:05:28.526Z,21.02
2018-05-29T05:07:56.056Z,19.87
2018-05-29T05:10:23.579Z,21.23
2018-05-29T05:12:51.138Z,21.40
2018-05-29T05:15:18.661Z,20.45
2018-05-29T05:17:46.957Z,20.35
2018-05-29T05:20:15.298Z,21.10
2018-05-29T05:22:42.831Z,20.90
2018-05-29T05:25:10.394Z,20.17
2018-05-29T05:27:37.943Z,19.87
2018-05-29T05:30:05.515Z,20.23
2018-05-29T05:32:33.778Z,20.50
2018-05-29T05:35:01.336Z,20.17
2018-05-29T05:37:29.626Z,19.83
2018-05-29T05:39:57.157Z,20.48
2018-05-29T05:42:24.777Z,18.62
2018-05-29T05:44:52.301Z,18.67
2018-05-29T05:47:20.581Z,18.08
2018-05-29T05:49:48.909Z,18.08
2018-05-29T05:52:16.441Z,20.12
2018-05-29T05:54:44.725Z,17.90
2018-05-29T05:57:13.050Z,18.20
2018-05-29T05:59:40.593Z,20.20
2018-05-29T06:02:08.118Z,16.80
2018-05-29T06:04:35.665Z,17.17
2018-05-29T06:07:03.345Z,17.20
2018-05-29T06:09:31.642Z,17.75
2018-05-29T06:11:59.957Z,16.45
2018-05-29T06:14:27.478Z,15.88
2018-05-29T06:16:55.009Z,16.37
2018-05-29T06:19:22.559Z,16.58
2018-05-29T06:21:50.798Z,16.33
2018-05-29T06:24:19.260Z,15.95
2018-05-29T06:26:46.802Z,16.55
2018-05-29T06:29:14.329Z,16.12
2018-05-29T06:31:42.621Z,16.17
2018-05-29T06:34:10.173Z,16.08
2018-05-29T06:36:37.702Z,17.80
2018-05-29T06:39:06.133Z,15.55
2018-05-29T06:41:33.682Z,15.45
2018-05-29T06:44:01.231Z,14.57
2018-05-29T06:46:29.527Z,15.88
2018-05-29T06:48:57.066Z,14.27
2018-05-29T06:51:24.627Z,15.57
2018-05-29T06:53:53.669Z,14.70
2018-05-29T06:56:21.205Z,15.27
2018-05-29T06:58:49.505Z,15.45
2018-05-29T07:01:17.074Z,14.20
2018-05-29T07:03:44.619Z,14.57
2018-05-29T07:06:12.897Z,14.15
2018-05-29T07:08:41.274Z,14.55
2018-05-29T07:11:09.597Z,14.87
2018-05-29T07:13:37.124Z,14.05
2018-05-29T07:16:05.423Z,13.98
2018-05-29T07:18:33.742Z,12.30
2018-05-29T07:21:01.265Z,13.60
2018-05-29T07:23:29.561Z,13.70
2018-05-29T07:25:57.152Z,15.10
2018-05-29T07:28:24.681Z,15.15
2018-05-29T07:30:52.209Z,11.88
2018-05-29T07:33:21.285Z,12.15
2018-05-29T07:35:48.956Z,11.95
2018-05-29T07:38:16.502Z,13.52
2018-05-29T07:40:44.061Z,11.65
2018-05-29T07:43:11.585Z,12.05
2018-05-29T07:45:39.882Z,12.77
2018-05-29T07:48:08.201Z,11.70
2018-05-29T07:50:35.730Z,12.18
2018-05-29T07:53:04.009Z,10.23
2018-05-29T07:55:31.569Z,11.65
2018-05-29T07:57:59.094Z,9.98
2018-05-29T08:00:26.743Z,11.27
2018-05-29T08:02:54.377Z,11.12
2018-05-29T08:05:21.909Z,10.90
2018-05-29T08:07:50.570Z,11.35
2018-05-29T08:10:18.178Z,11.68
2018-05-29T08:12:46.458Z,10.45
2018-05-29T08:15:14.750Z,10.80
2018-05-29T08:17:43.062Z,10.20
2018-05-29T08:20:10.586Z,11.38
2018-05-29T08:22:38.877Z,11.68
2018-05-29T08:25:07.189Z,10.45
2018-05-29T08:27:34.708Z,10.70
2018-05-29T08:30:02.994Z,9.48
2018-05-29T08:32:31.327Z,10.38
2018-05-29T08:34:58.877Z,10.30
2018-05-29T08:37:26.401Z,10.20
2018-05-29T08:39:54.718Z,9.50
2018-05-29T08:42:22.326Z,10.82
2018-05-29T08:44:50.529Z,9.70
2018-05-29T08:47:18.837Z,11.77
2018-05-29T08:49:46.373Z,8.93
2018-05-29T08:52:14.657Z,9.25
2018-05-29T08:54:42.961Z,9.73
2018-05-29T08:57:10.488Z,8.52
2018-05-29T08:59:38.011Z,9.82
2018-05-29T09:02:05.554Z,8.15
2018-05-29T09:04:33.096Z,10.25
2018-05-29T09:07:00.602Z,8.23
2018-05-29T09:09:28.147Z,7.57
2018-05-29T09:11:55.862Z,8.07
2018-05-29T09:14:23.406Z,7.75
2018-05-29T09:16:50.954Z,7.37
2018-05-29T09:19:18.521Z,7.95
2018-05-29T09:21:46.505Z,7.72
2018-05-29T09:24:14.060Z,6.70
2018-05-29T09:26:41.574Z,7.22
2018-05-29T09:29:09.097Z,6.60
2018-05-29T09:31:36.636Z,7.00
2018-05-29T09:34:04.158Z,7.12
2018-05-29T09:36:31.703Z,7.60
2018-05-29T09:38:59.233Z,8.32
2018-05-29T09:41:27.559Z,6.65
2018-05-29T09:43:55.101Z,6.22
2018-05-29T09:46:22.662Z,7.07
2018-05-29T09:48:50.166Z,6.18
2018-05-29T09:51:18.465Z,5.87
2018-05-29T09:53:46.776Z,8.18
2018-05-29T09:56:15.062Z,6.85
2018-05-29T09:58:42.574Z,5.82
2018-05-29T10:01:10.171Z,5.18
2018-05-29T10:03:37.653Z,7.93
2018-05-29T10:06:05.177Z,5.40
2018-05-29T10:08:32.725Z,5.87
2018-05-29T10:11:01.006Z,5.78
2018-05-29T10:13:28.626Z,5.70
2018-05-29T10:15:56.187Z,6.45
2018-05-29T10:18:23.712Z,8.98
2018-05-29T10:20:51.222Z,6.93
2018-05-29T10:23:18.812Z,6.68
2018-05-29T10:25:46.309Z,5.43
2018-05-29T10:28:13.923Z,5.82
2018-05-29T10:30:41.481Z,5.65
2018-05-29T10:33:09.010Z,6.53
2018-05-29T10:35:37.294Z,5.22
2018-05-29T10:38:05.606Z,5.87
2018-05-29T10:40:33.134Z,7.57
2018-05-29T10:43:00.657Z,6.10
2018-05-29T10:45:28.197Z,6.47
2018-05-29T10:47:55.731Z,5.68
2018-05-29T10:50:24.006Z,5.07
2018-05-29T10:52:51.564Z,6.80
2018-05-29T10:55:19.090Z,6.62
2018-05-29T10:57:46.643Z,5.90
2018-05-29T11:00:14.181Z,8.35
2018-05-29T11:02:42.485Z,6.20
2018-05-29T11:05:10.046Z,6.62
2018-05-29T11:07:37.598Z,5.62
2018-05-29T11:10:05.164Z,6.30
2018-05-29T11:12:32.689Z,5.72
2018-05-29T11:15:00.386Z,6.25
2018-05-29T11:17:28.685Z,7.70
2018-05-29T11:19:56.261Z,6.40
2018-05-29T11:22:23.807Z,6.20
2018-05-29T11:24:51.406Z,6.05
2018-05-29T11:27:18.926Z,5.75
2018-05-29T11:29:47.240Z,5.78
2018-05-29T11:32:14.760Z,6.05
2018-05-29T11:34:42.283Z,5.30
2018-05-29T11:37:09.846Z,6.60
2018-05-29T11:39:37.370Z,5.78
2018-05-29T11:42:05.657Z,5.57
2018-05-29T11:44:33.209Z,7.30
2018-05-29T11:47:01.494Z,6.25
2018-05-29T11:49:29.765Z,5.87
2018-05-29T11:51:58.175Z,5.53
2018-05-29T11:54:25.710Z,5.78
2018-05-29T11:56:53.985Z,5.85
2018-05-29T11:59:23.025Z,8.48
2018-05-29T12:01:50.579Z,6.60
2018-05-29T12:04:18.146Z,6.53
2018-05-29T12:06:45.722Z,8.85
2018-05-29T12:09:13.244Z,6.20
2018-05-29T12:11:40.781Z,6.22
2018-05-29T12:14:08.417Z,7.68
2018-05-29T12:16:36.909Z,7.75
2018-05-29T12:19:04.445Z,12.30
2018-05-29T12:21:32.746Z,6.95
2018-05-29T12:24:00.258Z,6.82
2018-05-29T12:26:29.287Z,9.43
2018-05-29T12:28:57.593Z,7.28
2018-05-29T12:31:25.097Z,7.95
2018-05-29T12:33:52.654Z,8.52
2018-05-29T12:36:20.201Z,7.30
2018-05-29T12:38:47.721Z,7.37
2018-05-29T12:41:16.010Z,8.32
2018-05-29T12:43:44.314Z,5.80
2018-05-29T12:46:11.892Z,4.93
2018-05-29T12:48:39.410Z,5.53
2018-05-29T12:51:07.741Z,7.35
2018-05-29T12:53:35.273Z,6.18
2018-05-29T12:56:02.829Z,6.93
2018-05-29T12:58:31.152Z,4.15
2018-05-29T13:00:58.696Z,4.28
2018-05-29T13:03:26.218Z,5.15
2018-05-29T13:05:53.775Z,4.50
2018-05-29T13:08:21.293Z,7.07
2018-05-29T13:10:48.813Z,4.32
2018-05-29T13:13:16.386Z,4.18
2018-05-29T13:15:44.737Z,5.50
2018-05-29T13:18:12.349Z,7.00
2018-05-29T13:20:39.893Z,4.75
2018-05-29T13:23:07.409Z,6.40
2018-05-29T13:25:34.934Z,4.40
2018-05-29T13:28:03.248Z,6.10
2018-05-29T13:30:30.779Z,4.90
2018-05-29T13:32:59.059Z,7.32
2018-05-29T13:35:27.466Z,3.85
2018-05-29T13:37:55.026Z,4.85
2018-05-29T13:40:23.317Z,6.70
2018-05-29T13:42:50.883Z,4.35
2018-05-29T13:45:18.389Z,6.75
2018-05-29T13:47:45.909Z,6.35
2018-05-29T13:50:13.478Z,6.85
2018-05-29T13:52:41.014Z,5.37
2018-05-29T13:55:09.302Z,7.68
2018-05-29T13:57:36.861Z,5.00
2018-05-29T14:00:05.138Z,4.37
2018-05-29T14:02:33.418Z,9.27
2018-05-29T14:05:01.718Z,4.25
2018-05-29T14:07:29.243Z,6.45
2018-05-29T14:09:56.763Z,9.57
2018-05-29T14:12:24.324Z,4.95
2018-05-29T14:14:51.913Z,6.70
2018-05-29T14:17:19.454Z,8.38
2018-05-29T14:19:47.051Z,6.60
2018-05-29T14:22:14.566Z,6.75
2018-05-29T14:24:42.695Z,5.62
2018-05-29T14:27:10.237Z,6.10
2018-05-29T14:29:37.754Z,6.90
2018-05-29T14:32:06.066Z,7.10
2018-05-29T14:34:33.614Z,8.90
2018-05-29T14:37:01.133Z,7.12
2018-05-29T14:39:28.661Z,5.03
2018-05-29T14:41:56.202Z,4.95
2018-05-29T14:44:24.503Z,5.22
2018-05-29T14:46:52.013Z,5.32
2018-05-29T14:49:19.590Z,8.80
2018-05-29T14:51:47.875Z,8.93
2018-05-29T14:54:15.382Z,5.47
2018-05-29T14:56:42.918Z,7.10
2018-05-29T14:59:11.237Z,6.72
2018-05-29T15:01:38.756Z,6.85
2018-05-29T15:04:07.162Z,9.30
2018-05-29T15:06:34.692Z,5.87
2018-05-29T15:09:02.224Z,8.13
2018-05-29T15:11:29.878Z,7.68
2018-05-29T15:13:58.161Z,7.75
2018-05-29T15:16:26.457Z,6.40
2018-05-29T15:18:53.990Z,5.47
2018-05-29T15:21:21.719Z,10.43
2018-05-29T15:23:49.229Z,4.95
2018-05-29T15:29:07.161Z,7.43
2018-05-29T15:31:34.674Z,4.25
2018-05-29T15:34:02.184Z,7.35
2018-05-29T15:36:30.473Z,7.93
2018-05-29T15:38:57.981Z,8.60
2018-05-29T15:41:25.518Z,6.03
2018-05-29T15:43:53.050Z,5.57
2018-05-29T15:46:21.337Z,6.32
2018-05-29T15:48:49.645Z,6.22
2018-05-29T15:51:17.976Z,7.60
2018-05-29T15:53:45.484Z,8.75
2018-05-29T15:56:12.996Z,4.40
2018-05-29T15:58:40.557Z,7.85
2018-05-29T16:01:08.090Z,4.72
2018-05-29T16:03:35.588Z,7.15
2018-05-29T16:06:03.193Z,5.53
2018-05-29T16:08:30.745Z,5.80
2018-05-29T16:10:59.045Z,5.75
2018-05-29T16:13:26.585Z,7.72
2018-05-29T16:15:54.860Z,4.25
2018-05-29T16:18:23.150Z,7.15
2018-05-29T16:20:51.464Z,5.03
2018-05-29T16:23:19.177Z,5.18
2018-05-29T16:25:46.721Z,5.45
2018-05-29T16:28:14.248Z,4.53
2018-05-29T16:30:42.536Z,5.22
2018-05-29T16:33:10.093Z,5.53
2018-05-29T16:35:37.630Z,7.18
2018-05-29T16:38:05.140Z,4.62
2018-05-29T16:40:32.718Z,9.52
2018-05-29T16:43:00.349Z,5.72
2018-05-29T16:45:27.869Z,8.48
2018-05-29T16:47:55.397Z,10.98
2018-05-29T16:50:22.940Z,7.72
2018-05-29T16:52:51.224Z,6.28
2018-05-29T16:55:18.792Z,8.38
2018-05-29T16:57:47.152Z,4.65
2018-05-29T17:00:15.429Z,6.80
2018-05-29T17:02:43.737Z,6.43
2018-05-29T17:05:12.046Z,3.75
2018-05-29T17:07:39.552Z,6.32
2018-05-29T17:10:07.074Z,4.72
2018-05-29T17:12:34.623Z,5.15
2018-05-29T17:15:02.133Z,5.87
2018-05-29T17:17:29.677Z,6.00
2018-05-29T17:19:57.215Z,4.43
2018-05-29T17:22:25.500Z,10.23
2018-05-29T17:24:53.072Z,5.28
2018-05-29T17:27:20.604Z,5.75
2018-05-29T17:29:48.904Z,6.65
2018-05-29T17:32:16.436Z,4.82
2018-05-29T17:34:44.743Z,5.25
2018-05-29T17:37:12.264Z,7.60
2018-05-29T17:39:39.788Z,4.30
2018-05-29T17:42:07.325Z,8.18
2018-05-29T17:44:35.596Z,7.40
2018-05-29T17:47:03.873Z,7.05
2018-05-29T17:49:32.212Z,4.85
2018-05-29T17:51:59.731Z,5.68
2018-05-29T17:54:28.004Z,9.00
2018-05-29T17:56:56.318Z,8.80
2018-05-29T17:59:23.872Z,7.55
2018-05-29T18:01:51.382Z,5.95
2018-05-29T18:04:18.917Z,9.95
2018-05-29T18:06:46.425Z,9.95
2018-05-29T18:09:13.944Z,4.32
2018-05-29T18:11:41.491Z,5.12
2018-05-29T18:14:09.048Z,3.78
2018-05-29T18:16:36.530Z,6.10
2018-05-29T18:19:04.065Z,8.52
2018-05-29T18:21:32.346Z,8.65
2018-05-29T18:24:00.612Z,6.45
2018-05-29T18:26:28.193Z,7.43
2018-05-29T18:28:56.470Z,8.02
2018-05-29T18:31:24.768Z,4.00
2018-05-29T18:33:52.309Z,6.47
2018-05-29T18:36:19.821Z,6.25
2018-05-29T18:38:47.849Z,6.80
2018-05-29T18:41:16.165Z,5.32
2018-05-29T18:43:43.672Z,4.47
2018-05-29T18:46:11.182Z,6.25
2018-05-29T18:48:38.729Z,4.78
2018-05-29T18:51:07.013Z,6.32
2018-05-29T18:53:35.297Z,8.68
2018-05-29T18:56:03.603Z,7.97
2018-05-29T18:58:31.108Z,6.75
2018-05-29T19:00:58.628Z,6.65
2018-05-29T19:03:26.180Z,8.45
2018-05-29T19:05:54.490Z,4.68
2018-05-29T19:08:21.989Z,7.90
2018-05-29T19:10:49.538Z,8.35
2018-05-29T19:13:17.045Z,6.62
2018-05-29T19:15:45.320Z,6.55
2018-05-29T19:18:13.718Z,6.78
2018-05-29T19:20:41.243Z,8.07
2018-05-29T19:23:09.574Z,9.02
2018-05-29T19:25:37.143Z,7.72
2018-05-29T19:28:04.756Z,7.55
2018-05-29T19:30:33.389Z,9.15
2018-05-29T19:33:00.931Z,10.52
2018-05-29T19:35:29.219Z,7.97
2018-05-29T19:37:57.513Z,8.93
2018-05-29T19:40:25.045Z,11.93
2018-05-29T19:42:52.569Z,10.80
2018-05-29T19:45:20.083Z,7.07
2018-05-29T19:47:48.449Z,8.43
2018-05-29T19:50:16.168Z,7.20
2018-05-29T19:52:43.689Z,10.98
2018-05-29T19:55:11.213Z,10.18
2018-05-29T19:57:38.729Z,8.93
2018-05-29T20:00:07.413Z,9.77
2018-05-29T20:02:35.736Z,12.05
2018-05-29T20:05:03.250Z,10.77
2018-05-29T20:07:30.767Z,11.85
2018-05-29T20:09:58.323Z,11.02
2018-05-29T20:12:25.831Z,12.30
2018-05-29T20:14:53.340Z,17.20
2018-05-29T20:17:30.556Z,17.05
2018-05-29T20:19:58.152Z,16.58
2018-05-29T20:22:25.642Z,15.25
2018-05-29T20:24:53.961Z,14.00
2018-05-29T20:27:21.513Z,19.65
2018-05-29T20:29:49.138Z,18.45
2018-05-29T20:32:16.674Z,25.55
2018-05-29T20:34:44.956Z,17.15
2018-05-29T20:37:12.481Z,9.73
2018-05-29T20:39:40.036Z,9.23
2018-05-29T20:42:07.545Z,9.63
2018-05-29T20:44:35.051Z,6.53
2018-05-29T20:47:03.349Z,11.27
2018-05-29T20:49:30.887Z,8.90
2018-05-29T20:51:58.497Z,7.68
2018-05-29T20:54:26.788Z,10.00
2018-05-29T20:56:54.301Z,11.40
2018-05-29T20:59:22.581Z,14.27
2018-05-29T21:01:50.897Z,27.75
2018-05-29T21:04:18.412Z,26.83
2018-05-29T21:06:45.945Z,17.98
2018-05-29T21:09:13.509Z,17.05
2018-05-29T21:11:41.815Z,7.87
2018-05-29T21:14:09.342Z,7.55
2018-05-29T21:16:36.886Z,9.63
2018-05-29T21:19:05.159Z,8.07
2018-05-29T21:21:33.437Z,9.18
2018-05-29T21:24:01.864Z,10.98
2018-05-29T21:26:29.390Z,13.25
2018-05-29T21:28:57.721Z,13.90
2018-05-29T21:31:25.348Z,21.00
2018-05-29T21:33:52.853Z,13.40
2018-05-29T21:36:20.371Z,12.40
2018-05-29T21:38:48.673Z,13.77
2018-05-29T21:41:16.193Z,11.50
2018-05-29T21:43:43.701Z,12.18
2018-05-29T21:46:11.250Z,9.77
2018-05-29T21:48:38.770Z,8.88
2018-05-29T21:51:06.285Z,12.10
2018-05-29T21:53:33.875Z,14.02
2018-05-29T21:56:01.975Z,13.75
2018-05-29T21:58:29.504Z,13.32
2018-05-29T22:00:57.831Z,12.55
2018-05-29T22:03:25.453Z,10.60
2018-05-29T22:05:52.971Z,14.10
2018-05-29T22:08:20.504Z,11.30
2018-05-29T22:10:48.027Z,11.70
2018-05-29T22:13:15.561Z,11.85
2018-05-29T22:15:43.129Z,10.45
2018-05-29T22:18:11.562Z,11.63
2018-05-29T22:20:39.085Z,11.23
2018-05-29T22:23:07.402Z,18.80
2018-05-29T22:25:34.926Z,14.55
2018-05-29T22:28:03.231Z,11.07
2018-05-29T22:30:30.868Z,12.13
2018-05-29T22:32:58.417Z,15.85
2018-05-29T22:35:26.024Z,13.60
2018-05-29T22:37:53.570Z,14.82
2018-05-29T22:40:21.857Z,14.18
2018-05-29T22:42:50.140Z,14.73
2018-05-29T22:45:18.449Z,14.55
2018-05-29T22:47:45.959Z,18.37
2018-05-29T22:50:13.561Z,15.07
2018-05-29T22:52:41.861Z,23.67
2018-05-29T22:55:09.376Z,16.23
2018-05-29T22:57:37.664Z,14.07
2018-05-29T23:00:05.980Z,13.85
2018-05-29T23:02:33.490Z,14.52
2018-05-29T23:05:01.037Z,12.02
2018-05-29T23:07:28.581Z,14.07
2018-05-29T23:09:56.116Z,13.18
2018-05-29T23:12:24.414Z,15.73
2018-05-29T23:14:52.944Z,14.77
2018-05-29T23:17:20.466Z,17.90
2018-05-29T23:19:47.985Z,15.60
2018-05-29T23:22:15.542Z,12.32
2018-05-29T23:24:43.073Z,17.15
2018-05-29T23:27:10.590Z,11.38
2018-05-29T23:29:38.925Z,10.57
2018-05-29T23:32:06.469Z,11.00
2018-05-29T23:34:34.157Z,9.40
2018-05-29T23:37:01.715Z,9.45
2018-05-29T23:39:29.273Z,11.15
2018-05-29T23:41:56.792Z,11.57
2018-05-29T23:44:24.392Z,11.45
2018-05-29T23:46:51.916Z,9.55
2018-05-29T23:49:20.198Z,11.98
2018-05-29T23:51:48.531Z,13.98
2018-05-29T23:54:16.037Z,12.73
2018-05-29T23:56:44.053Z,10.95
2018-05-29T23:59:13.271Z,14.73
